GalaxyControl    Crypto Space Commander - Recent OpenSea Sales   v0.1
Ships and modules from Crypto Space Commanders sold for CryptoCurrency and thus real value.
Data is gathered every 6 hours from the OpenSea API. Since the main reason to gather the data is to track prices only non-bundled sales are processed.
Transaction Owner Asset Price
Time ID Old owner New owner Icon Asset Tech Currency Price Dollar value
11.05.2020 01:18 23723687 Launchpad_McFrak RyanJK Corvette SE T1 ETH 0,050 9,5
14.04.2020 23:49 18742836 Launchpad_McFrak spaceman Maelstrom F84 FTL Drive T1 ETH 0,020 3,1
09.04.2020 16:59 18515025 Launchpad_McFrak BlackKettle Voyager SE T1 ETH 0,070 11,9
04.04.2020 06:12 18262568 Launchpad_McFrak BlackKettle Corvette MP T1 ETH 0,250 35,3
28.03.2020 18:29 17964934 Launchpad_McFrak magique Maelstrom F84 FTL Drive T1 ETH 0,015 2,0
25.03.2020 20:59 17831043 Launchpad_McFrak magique Maelstrom F81 FTL Drive T1 ETH 0,012 1,6
16.03.2020 23:13 17367581 Launchpad_McFrak Salas Lazarus Prime Class 1 Core T1 ETH 0,015 1,8
09.03.2020 20:05 16929337 Launchpad_McFrak Voland7682 Miners Comfort V2 T1 ETH 0,011 2,2
24.02.2020 16:08 16169613 Launchpad_McFrak BlackKettle Hush X2 Ion Booster T1 ETH 0,010 2,6
21.02.2020 08:03 15985827 Launchpad_McFrak BlackKettle Stalkers Hull Armor MK2 T1 ETH 0,010 2,6
30.01.2020 17:13 14719375 Launchpad_McFrak GriffHash FKD Disrupter Pulse ML 1 T1 ETH 0,040 7,4
25.01.2020 21:52 14413461 Launchpad_McFrak Ether Micro Jump Drive T1 ETH 0,030 4,8
22.01.2020 15:23 14226120 Launchpad_McFrak BlackKettle Phantom Spark Device RR1 T1 ETH 0,020 3,3
14.01.2020 18:53 13832769 Launchpad_McFrak DoubleD Cobalt VS100 Screen T1 ETH 0,013 2,1
14.01.2020 04:39 13805005 Launchpad_McFrak nurD Reaper D2 Particle Beam T1 ETH 0,020 3,0
12.01.2020 19:37 13754968 Launchpad_McFrak Gamermachine21 Thermal Allgad Beam T1 ETH 0,013 1,9
12.01.2020 19:33 13754913 Launchpad_McFrak Gamermachine21 BB Alpha Core Class 4 T1 ETH 0,018 2,6
12.01.2020 16:14 13749375 Launchpad_McFrak ProspectorJ Vital CP3 Conversion Core T1 ETH 0,022 3,2
12.01.2020 07:54 13738894 Launchpad_McFrak lodaddy Debel Z2 Plasma Shield T1 WETH 0,010 1,4
12.01.2020 07:53 13738867 Launchpad_McFrak ChuckyPwn Quantum R2 Prefactory Particle Beam T1 WETH 0,020 2,9
12.01.2020 00:13 13728545 Launchpad_McFrak 5aeedbc6 Blossom Star EMP XL T1 ETH 0,022 3,2
10.01.2020 19:50 13680385 Launchpad_McFrak Demix DoloMesh CFC001 T1 ETH 0,011 1,6
10.01.2020 19:50 13680398 Launchpad_McFrak Demix VT65 Plasma Core Separator T1 ETH 0,018 2,6
09.01.2020 16:17 13633519 Launchpad_McFrak E5K1M0 Sempra Harvester T1 WETH 0,015 2,0
09.01.2020 07:27 13618963 Launchpad_McFrak Maverick_and_Goose Micro Jump Drive T1 ETH 0,030 4,2
07.01.2020 07:30 13527852 Launchpad_McFrak ShapelessLionOfPerfectCurrent Cobalt VS100 Screen T1 ETH 0,013 1,9
06.01.2020 20:03 13500577 Launchpad_McFrak nurD BL2 Iridium Bolt Rail Gun T2 ETH 0,050 7,1
06.01.2020 11:34 13476372 Launchpad_McFrak ChuckdGaf Reaper Class 3 Graviton Beam T2 ETH 0,140 19,7
29.12.2019 18:34 13186173 Launchpad_McFrak BlackKettle Lazarus Prime Class 3 Core T1 ETH 0,035 4,7
29.12.2019 07:59 13172170 Launchpad_McFrak spaceballs3000 Regenerative Shields T1 ETH 0,038 4,9
25.12.2019 10:33 13055316 Launchpad_McFrak Maverick_and_Goose Cobalt VS100 Screen T1 ETH 0,013 1,6
24.12.2019 15:22 13035220 Launchpad_McFrak G3nka Reaper Galena M7 T1 ETH 0,060 7,6
21.12.2019 21:21 12946615 Launchpad_McFrak BlackKettle Premium Cargo Container T1 ETH 0,025 3,2
18.12.2019 01:17 12811687 Launchpad_McFrak Maverick_and_Goose Kindled R2 Kinetic Shield T1 ETH 0,030 3,7
18.12.2019 00:40 12810157 Launchpad_McFrak RockIng Dolo N1 Neon Liquid Separator T1 ETH 0,015 1,8
17.12.2019 22:25 12803164 Launchpad_McFrak MR-DAPP Common Core CJ Scanner T1 ETH 0,002 0,2
17.12.2019 22:17 12802933 Launchpad_McFrak MR-DAPP Miners Comfort V1 T1 ETH 0,004 0,5
17.12.2019 11:26 12780412 Launchpad_McFrak e14544f4 S26 Ferry Cabin T1 ETH 0,030 3,8
16.12.2019 09:36 12733407 Launchpad_McFrak MolekMan Glam 007 Series X Liner T1 ETH 0,030 3,8
16.12.2019 08:13 12731501 Launchpad_McFrak c0043dad Hush SL2 Ion Booster T1 ETH 0,008 1,0
16.12.2019 06:12 12728911 Launchpad_McFrak BlackKettle Phoenix XR3 Hellfire Laser Cannon T1 ETH 0,035 4,5
16.12.2019 01:55 12722725 Launchpad_McFrak c0043dad DoloPlasma RD100 Beam Set T1 ETH 0,020 2,6
15.12.2019 19:44 12713394 Launchpad_McFrak BlackKettle Anti-Matter Energy Beam A T1 ETH 0,003 0,4
13.12.2019 19:27 12632534 Launchpad_McFrak BlackKettle BB Alpha Core Class 4 T1 ETH 0,015 1,9
13.12.2019 19:23 12632435 Launchpad_McFrak BlackKettle DR1 Impact Shaker Deck T1 ETH 0,030 3,8
13.12.2019 19:22 12632335 Launchpad_McFrak BlackKettle VS22 Titanium Mesh T1 ETH 0,035 4,5
13.12.2019 19:20 12632013 Launchpad_McFrak BlackKettle LSC G2 Sub Booster T1 ETH 0,008 1,0
Apache Webserver PHP MySQL Firefox Twitter @Galaxy_Control   |   Support me via:   Support via Ethereum Support via Patreon